createdAt,value
2023-05-21T00:00:24.732Z,15.15
2023-05-21T00:01:56.846Z,15.05
2023-05-21T00:03:30.434Z,14.98
2023-05-21T00:05:02.634Z,14.97
2023-05-21T00:06:36.433Z,14.95
2023-05-21T00:08:08.336Z,14.92
2023-05-21T00:09:39.857Z,14.92
2023-05-21T00:11:11.960Z,14.93
2023-05-21T00:12:43.528Z,14.89
2023-05-21T00:14:15.235Z,14.90
2023-05-21T00:15:47.005Z,14.91
2023-05-21T00:17:18.601Z,14.90
2023-05-21T00:18:50.277Z,14.89
2023-05-21T00:20:22.133Z,14.86
2023-05-21T00:21:54.950Z,14.83
2023-05-21T00:23:27.318Z,14.83
2023-05-21T00:24:59.344Z,14.77
2023-05-21T00:26:31.846Z,14.77
2023-05-21T00:28:03.521Z,14.76
2023-05-21T00:29:35.099Z,14.74
2023-05-21T00:31:07.429Z,14.75
2023-05-21T00:32:39.382Z,14.69
2023-05-21T00:34:11.810Z,14.60
2023-05-21T00:35:43.458Z,14.51
2023-05-21T00:37:15.618Z,14.46
2023-05-21T00:38:47.526Z,14.43
2023-05-21T00:40:19.812Z,14.42
2023-05-21T00:41:51.621Z,14.43
2023-05-21T00:43:26.548Z,14.42
2023-05-21T00:44:58.372Z,14.36
2023-05-21T00:46:30.207Z,14.34
2023-05-21T00:48:02.943Z,14.32
2023-05-21T00:49:35.462Z,14.26
2023-05-21T00:51:07.440Z,14.22
2023-05-21T00:52:42.527Z,14.22
2023-05-21T00:54:14.569Z,14.22
2023-05-21T00:55:47.094Z,14.21
2023-05-21T00:57:22.528Z,14.21
2023-05-21T00:58:55.389Z,14.22
2023-05-21T01:00:27.028Z,14.24
2023-05-21T01:02:04.433Z,14.26
2023-05-21T01:03:39.174Z,14.26
2023-05-21T01:05:11.365Z,14.25
2023-05-21T01:06:43.197Z,14.26
2023-05-21T01:08:15.476Z,14.25
2023-05-21T01:09:46.989Z,14.23
2023-05-21T01:11:18.786Z,14.23
2023-05-21T01:12:50.749Z,14.20
2023-05-21T01:14:23.156Z,14.20
2023-05-21T01:15:55.255Z,14.17
2023-05-21T01:17:27.760Z,14.16
2023-05-21T01:19:00.103Z,14.13
2023-05-21T01:20:32.787Z,14.05
2023-05-21T01:22:05.290Z,13.89
2023-05-21T01:23:36.955Z,13.74
2023-05-21T01:25:09.466Z,13.60
2023-05-21T01:26:42.960Z,13.58
2023-05-21T01:28:14.590Z,13.62
2023-05-21T01:29:46.271Z,13.64
2023-05-21T01:31:26.523Z,13.67
2023-05-21T01:32:58.482Z,13.68
2023-05-21T01:34:35.114Z,13.61
2023-05-21T01:36:07.245Z,13.49
2023-05-21T01:37:46.166Z,13.44
2023-05-21T01:39:22.953Z,13.44
2023-05-21T01:41:03.977Z,13.34
2023-05-21T01:42:36.218Z,13.26
2023-05-21T01:44:07.838Z,13.25
2023-05-21T01:45:40.455Z,13.16
2023-05-21T01:47:12.472Z,13.15
2023-05-21T01:48:44.433Z,13.19
2023-05-21T01:50:16.599Z,13.22
2023-05-21T01:51:48.831Z,13.28
2023-05-21T01:53:21.051Z,13.32
2023-05-21T01:54:54.694Z,13.37
2023-05-21T01:56:28.564Z,13.47
2023-05-21T01:58:02.319Z,13.49
2023-05-21T01:59:34.535Z,13.52
2023-05-21T02:01:06.198Z,13.56
2023-05-21T02:02:38.702Z,13.58
2023-05-21T02:04:10.359Z,13.59
2023-05-21T02:05:41.913Z,13.62
2023-05-21T02:07:16.289Z,13.66
2023-05-21T02:08:48.717Z,13.63
2023-05-21T02:10:21.363Z,13.60
2023-05-21T02:11:53.582Z,13.59
2023-05-21T02:13:26.555Z,13.53
2023-05-21T02:14:58.616Z,13.50
2023-05-21T02:16:30.628Z,13.38
2023-05-21T02:18:02.969Z,13.26
2023-05-21T02:19:35.104Z,13.23
2023-05-21T02:21:07.110Z,13.23
2023-05-21T02:22:39.578Z,13.21
2023-05-21T02:24:11.482Z,13.20
2023-05-21T02:25:43.072Z,13.20
2023-05-21T02:27:17.749Z,13.19
2023-05-21T02:28:49.571Z,13.21
2023-05-21T02:30:21.322Z,13.24
2023-05-21T02:31:53.368Z,13.27
2023-05-21T02:33:24.915Z,13.29
2023-05-21T02:34:56.891Z,13.30
2023-05-21T02:36:28.939Z,13.32
2023-05-21T02:38:03.251Z,13.33
2023-05-21T02:39:34.899Z,13.26
2023-05-21T02:41:06.678Z,13.24
2023-05-21T02:42:40.200Z,13.20
2023-05-21T02:44:12.213Z,13.21
2023-05-21T02:45:44.068Z,13.21
2023-05-21T02:47:15.807Z,13.25
2023-05-21T02:48:47.663Z,13.26
2023-05-21T02:50:19.359Z,13.20
2023-05-21T02:51:50.985Z,13.16
2023-05-21T02:53:23.144Z,13.14
2023-05-21T02:54:54.726Z,13.06
2023-05-21T02:56:26.678Z,13.02
2023-05-21T02:57:58.350Z,13.06
2023-05-21T02:59:30.038Z,13.00
2023-05-21T03:01:01.727Z,12.95
2023-05-21T03:02:33.583Z,12.94
2023-05-21T03:04:05.174Z,12.93
2023-05-21T03:05:38.549Z,12.96
2023-05-21T03:07:10.298Z,13.01
2023-05-21T03:08:42.008Z,13.04
2023-05-21T03:10:13.660Z,13.09
2023-05-21T03:11:45.269Z,13.13
2023-05-21T03:13:16.902Z,13.11
2023-05-21T03:14:49.094Z,13.15
2023-05-21T03:16:20.652Z,13.16
2023-05-21T03:17:54.597Z,13.18
2023-05-21T03:19:26.868Z,13.19
2023-05-21T03:20:59.085Z,13.20
2023-05-21T03:22:30.625Z,13.21
2023-05-21T03:24:03.303Z,13.18
2023-05-21T03:25:36.792Z,13.12
2023-05-21T03:27:08.535Z,13.14
2023-05-21T03:28:40.167Z,13.16
2023-05-21T03:30:12.416Z,13.20
2023-05-21T03:31:44.441Z,13.27
2023-05-21T03:33:16.633Z,13.27
2023-05-21T03:34:48.338Z,13.33
2023-05-21T03:36:20.657Z,13.34
2023-05-21T03:37:52.564Z,13.35
2023-05-21T03:39:24.344Z,13.36
2023-05-21T03:40:56.882Z,13.40
2023-05-21T03:42:28.522Z,13.41
2023-05-21T03:44:00.864Z,13.45
2023-05-21T03:45:32.753Z,13.45
2023-05-21T03:47:05.078Z,13.40
2023-05-21T03:48:36.828Z,13.33
2023-05-21T03:50:09.920Z,13.33
2023-05-21T03:51:41.756Z,13.28
2023-05-21T03:53:14.029Z,13.22
2023-05-21T03:54:45.960Z,13.21
2023-05-21T03:56:18.286Z,13.22
2023-05-21T03:57:49.998Z,13.22
2023-05-21T03:59:21.781Z,13.20
2023-05-21T04:00:53.886Z,13.21
2023-05-21T04:02:28.635Z,13.22
2023-05-21T04:04:01.231Z,13.28
2023-05-21T04:05:33.310Z,13.32
2023-05-21T04:07:05.374Z,13.30
2023-05-21T04:08:38.653Z,13.32
2023-05-21T04:10:10.800Z,13.37
2023-05-21T04:11:42.469Z,13.42
2023-05-21T04:13:14.889Z,13.49
2023-05-21T04:14:47.639Z,13.53
2023-05-21T04:16:19.581Z,13.57
2023-05-21T04:17:52.535Z,13.59
2023-05-21T04:19:24.799Z,13.64
2023-05-21T04:20:56.596Z,13.71
2023-05-21T04:22:28.563Z,13.75
2023-05-21T04:24:02.703Z,13.80
2023-05-21T04:25:34.690Z,13.86
2023-05-21T04:27:07.325Z,13.91
2023-05-21T04:28:42.820Z,14.05
2023-05-21T04:30:14.728Z,14.18
2023-05-21T04:31:46.611Z,14.33
2023-05-21T04:33:20.626Z,14.49
2023-05-21T04:34:52.297Z,14.62
2023-05-21T04:36:24.678Z,14.77
2023-05-21T04:37:56.447Z,14.90
2023-05-21T04:39:28.802Z,15.05
2023-05-21T04:41:04.009Z,15.15
2023-05-21T04:42:36.089Z,15.24
2023-05-21T04:44:08.032Z,15.38
2023-05-21T04:45:40.367Z,15.47
2023-05-21T04:47:15.026Z,15.64
2023-05-21T04:48:46.997Z,15.81
2023-05-21T04:50:18.842Z,15.98
2023-05-21T04:51:50.614Z,16.12
2023-05-21T04:53:22.864Z,16.27
2023-05-21T04:54:54.718Z,16.41
2023-05-21T04:56:31.874Z,16.52
2023-05-21T04:58:03.635Z,16.66
2023-05-21T04:59:35.379Z,16.83
2023-05-21T05:01:09.164Z,16.97
2023-05-21T05:02:40.899Z,17.12
2023-05-21T05:04:12.764Z,17.29
2023-05-21T05:05:44.604Z,17.39
2023-05-21T05:07:17.528Z,17.54
2023-05-21T05:08:49.801Z,17.63
2023-05-21T05:10:21.455Z,17.62
2023-05-21T05:11:53.195Z,17.66
2023-05-21T05:13:25.426Z,17.77
2023-05-21T05:14:57.059Z,17.89
2023-05-21T05:16:29.799Z,18.06
2023-05-21T05:18:02.141Z,18.20
2023-05-21T05:19:35.289Z,18.26
2023-05-21T05:21:06.899Z,18.26
2023-05-21T05:22:38.834Z,18.38
2023-05-21T05:24:10.652Z,18.59
2023-05-21T05:25:42.431Z,18.74
2023-05-21T05:27:14.676Z,18.93
2023-05-21T05:28:46.729Z,19.09
2023-05-21T05:30:18.311Z,19.26
2023-05-21T05:31:49.922Z,19.36
2023-05-21T05:33:21.555Z,19.51
2023-05-21T05:34:53.158Z,19.69
2023-05-21T05:36:24.828Z,19.82
2023-05-21T05:37:56.832Z,19.96
2023-05-21T05:39:28.468Z,20.09
2023-05-21T05:41:00.147Z,20.23
2023-05-21T05:42:31.806Z,20.38
2023-05-21T05:44:04.945Z,20.49
2023-05-21T05:45:36.847Z,20.61
2023-05-21T05:47:11.158Z,20.63
2023-05-21T05:48:43.171Z,20.71
2023-05-21T05:50:14.840Z,20.77
2023-05-21T05:51:47.175Z,20.71
2023-05-21T05:53:19.178Z,20.52
2023-05-21T05:54:50.862Z,20.36
2023-05-21T05:56:23.009Z,20.30
2023-05-21T05:57:55.034Z,20.12
2023-05-21T05:59:26.985Z,19.90
2023-05-21T06:00:59.367Z,19.75
2023-05-21T06:02:31.535Z,19.70
2023-05-21T06:04:03.716Z,19.59
2023-05-21T06:05:36.287Z,19.66
2023-05-21T06:07:09.051Z,19.64
2023-05-21T06:08:40.968Z,19.62
2023-05-21T06:10:12.860Z,19.66
2023-05-21T06:11:44.422Z,19.57
2023-05-21T06:13:16.366Z,19.60
2023-05-21T06:14:49.356Z,19.69
2023-05-21T06:16:21.157Z,19.78
2023-05-21T06:17:53.220Z,19.90
2023-05-21T06:19:25.453Z,19.95
2023-05-21T06:20:57.322Z,19.90
2023-05-21T06:22:29.518Z,19.91
2023-05-21T06:24:01.210Z,19.80
2023-05-21T06:25:32.918Z,19.77
2023-05-21T06:27:05.127Z,19.74
2023-05-21T06:28:37.259Z,19.73
2023-05-21T06:30:09.107Z,19.71
2023-05-21T06:31:40.728Z,19.73
2023-05-21T06:33:12.780Z,19.58
2023-05-21T06:34:44.596Z,19.56
2023-05-21T06:36:17.129Z,19.68
2023-05-21T06:37:49.019Z,19.78
2023-05-21T06:39:20.796Z,19.89
2023-05-21T06:40:52.989Z,19.91
2023-05-21T06:42:24.928Z,19.92
2023-05-21T06:43:57.807Z,19.85
2023-05-21T06:45:29.679Z,19.84
2023-05-21T06:47:01.648Z,19.83
2023-05-21T06:48:33.607Z,19.78
2023-05-21T06:50:05.523Z,19.72
2023-05-21T06:51:37.289Z,19.71
2023-05-21T06:53:08.873Z,19.68
2023-05-21T06:54:40.529Z,19.68
2023-05-21T06:56:13.231Z,19.73
2023-05-21T06:57:44.873Z,19.87
2023-05-21T06:59:16.705Z,19.99
2023-05-21T07:00:48.865Z,20.01
2023-05-21T07:02:20.985Z,20.03
2023-05-21T07:03:53.176Z,20.12
2023-05-21T07:05:25.816Z,20.17
2023-05-21T07:06:58.275Z,20.24
2023-05-21T07:08:30.031Z,20.25
2023-05-21T07:10:01.658Z,20.28
2023-05-21T07:11:33.912Z,20.34
2023-05-21T07:13:05.791Z,20.36
2023-05-21T07:14:37.505Z,20.35
2023-05-21T07:16:09.644Z,20.20
2023-05-21T07:17:41.425Z,20.12
2023-05-21T07:19:13.127Z,20.09
2023-05-21T07:20:44.922Z,20.02
2023-05-21T07:22:16.541Z,20.02
2023-05-21T07:23:48.640Z,20.01
2023-05-21T07:25:20.589Z,20.01
2023-05-21T07:26:52.784Z,20.10
2023-05-21T07:28:24.571Z,20.13
2023-05-21T07:29:56.832Z,20.20
2023-05-21T07:31:28.790Z,20.17
2023-05-21T07:33:00.847Z,20.08
2023-05-21T07:34:33.343Z,20.02
2023-05-21T07:36:05.632Z,20.07
2023-05-21T07:37:39.816Z,20.17
2023-05-21T07:39:12.233Z,20.24
2023-05-21T07:40:44.134Z,20.26
2023-05-21T07:42:15.968Z,20.28
2023-05-21T07:43:48.004Z,20.33
2023-05-21T07:45:19.836Z,20.38
2023-05-21T07:46:51.684Z,20.37
2023-05-21T07:48:23.729Z,20.31
2023-05-21T07:49:55.799Z,20.39
2023-05-21T07:51:27.943Z,20.46
2023-05-21T07:53:00.102Z,20.50
2023-05-21T07:54:31.843Z,20.60
2023-05-21T07:56:03.467Z,20.59
2023-05-21T07:57:35.831Z,20.53
2023-05-21T07:59:07.983Z,20.52
2023-05-21T08:00:44.538Z,20.48
2023-05-21T08:02:17.062Z,20.44
2023-05-21T08:03:48.961Z,20.45
2023-05-21T08:05:21.690Z,20.41
2023-05-21T08:06:54.211Z,20.43
2023-05-21T08:08:26.494Z,20.43
2023-05-21T08:09:59.064Z,20.46
2023-05-21T08:11:31.425Z,20.48
2023-05-21T08:13:03.092Z,20.42
2023-05-21T08:14:34.743Z,20.28
2023-05-21T08:16:06.865Z,20.20
2023-05-21T08:17:39.252Z,20.11
2023-05-21T08:19:11.638Z,20.05
2023-05-21T08:20:43.523Z,19.99
2023-05-21T08:22:15.875Z,19.87
2023-05-21T08:23:47.678Z,19.75
2023-05-21T08:25:19.780Z,19.68
2023-05-21T08:26:51.686Z,19.60
2023-05-21T08:28:27.902Z,19.60
2023-05-21T08:29:59.734Z,19.53
2023-05-21T08:31:31.717Z,19.47
2023-05-21T08:33:03.874Z,19.42
2023-05-21T08:34:36.145Z,19.35
2023-05-21T08:36:08.435Z,19.31
2023-05-21T08:37:40.405Z,19.30
2023-05-21T08:39:13.308Z,19.23
2023-05-21T08:40:46.284Z,19.22
2023-05-21T08:42:41.209Z,19.19
2023-05-21T08:44:13.097Z,19.15
2023-05-21T08:45:45.559Z,19.13
2023-05-21T08:47:17.554Z,19.11
2023-05-21T08:48:49.281Z,19.11
2023-05-21T08:50:21.064Z,19.06
2023-05-21T08:51:54.214Z,19.06
2023-05-21T08:53:29.208Z,19.07
2023-05-21T08:55:01.232Z,19.16
2023-05-21T08:56:36.792Z,19.25
2023-05-21T08:58:08.546Z,19.26
2023-05-21T08:59:44.424Z,19.26
2023-05-21T09:01:19.895Z,19.23
2023-05-21T09:02:54.792Z,19.21
2023-05-21T09:04:28.253Z,19.17
2023-05-21T09:06:00.533Z,19.10
2023-05-21T09:07:32.834Z,19.08
2023-05-21T09:09:10.080Z,19.08
2023-05-21T09:10:44.136Z,19.13
2023-05-21T09:12:16.287Z,19.30
2023-05-21T09:13:48.236Z,19.41
2023-05-21T09:15:20.043Z,19.51
2023-05-21T09:16:51.966Z,19.62
2023-05-21T09:18:23.934Z,19.67
2023-05-21T09:20:17.013Z,19.78
2023-05-21T09:21:49.140Z,19.75
2023-05-21T09:23:20.924Z,19.72
2023-05-21T09:24:52.698Z,19.74
2023-05-21T09:26:24.694Z,19.79
2023-05-21T09:27:56.502Z,19.87
2023-05-21T09:29:28.320Z,19.91
2023-05-21T09:31:00.684Z,19.92
2023-05-21T09:32:33.638Z,20.00
2023-05-21T09:34:05.981Z,20.09
2023-05-21T09:35:38.356Z,20.20
2023-05-21T09:37:23.682Z,20.24
2023-05-21T09:39:00.412Z,20.26
2023-05-21T09:40:32.712Z,20.29
2023-05-21T09:42:04.771Z,20.28
2023-05-21T09:43:37.018Z,20.28
2023-05-21T09:45:12.428Z,20.28
2023-05-21T09:46:44.357Z,20.32
2023-05-21T09:48:16.641Z,20.44
2023-05-21T09:49:49.619Z,20.54
2023-05-21T09:51:22.420Z,20.54
2023-05-21T09:52:55.499Z,20.59
2023-05-21T09:54:31.288Z,20.70
2023-05-21T09:56:04.204Z,20.77
2023-05-21T09:57:43.607Z,20.70
2023-05-21T09:59:16.090Z,20.49
2023-05-21T10:00:48.320Z,20.38
2023-05-21T10:02:21.673Z,20.30
2023-05-21T10:03:57.641Z,20.26
2023-05-21T10:05:29.606Z,20.23
2023-05-21T10:07:01.675Z,20.23
2023-05-21T10:08:34.227Z,20.24
2023-05-21T10:10:06.186Z,20.30
2023-05-21T10:11:37.973Z,20.33
2023-05-21T10:13:10.102Z,20.36
2023-05-21T10:14:41.788Z,20.33
2023-05-21T10:16:13.728Z,20.31
2023-05-21T10:17:46.249Z,20.30
2023-05-21T10:19:18.953Z,20.28
2023-05-21T10:20:50.871Z,20.27
2023-05-21T10:22:25.321Z,20.27
2023-05-21T10:23:57.771Z,20.27
2023-05-21T10:25:29.586Z,20.31
2023-05-21T10:27:02.250Z,20.40
2023-05-21T10:28:34.242Z,20.45
2023-05-21T10:30:06.454Z,20.53
2023-05-21T10:31:39.107Z,20.61
2023-05-21T10:33:13.435Z,20.67
2023-05-21T10:34:45.321Z,20.64
2023-05-21T10:36:17.161Z,20.62
2023-05-21T10:37:49.012Z,20.63
2023-05-21T10:39:21.169Z,20.64
2023-05-21T10:40:53.044Z,20.63
2023-05-21T10:42:27.580Z,20.64
2023-05-21T10:44:15.672Z,20.62
2023-05-21T10:46:02.438Z,20.64
2023-05-21T10:47:54.477Z,20.65
2023-05-21T10:49:29.429Z,20.71
2023-05-21T10:51:09.130Z,20.84
2023-05-21T10:52:52.739Z,20.93
2023-05-21T10:54:43.357Z,21.06
2023-05-21T10:56:15.165Z,21.14
2023-05-21T12:28:40.122Z,21.70
2023-05-21T12:30:12.380Z,21.75
2023-05-21T12:31:49.758Z,21.83
2023-05-21T12:33:25.064Z,21.91
2023-05-21T12:34:57.328Z,21.99
2023-05-21T12:36:34.986Z,22.07
2023-05-21T12:38:07.619Z,22.19
2023-05-21T12:39:40.300Z,22.36
2023-05-21T12:41:12.730Z,22.53
2023-05-21T12:42:44.878Z,22.62
2023-05-21T12:44:17.129Z,22.77
2023-05-21T12:45:49.428Z,23.00
2023-05-21T12:47:23.156Z,23.23
2023-05-21T12:48:55.775Z,23.30
2023-05-21T12:50:27.811Z,23.34
2023-05-21T12:51:59.956Z,23.38
2023-05-21T12:53:38.472Z,23.31
2023-05-21T12:55:11.951Z,23.23
2023-05-21T12:56:46.771Z,23.13
2023-05-21T12:58:21.991Z,22.96
2023-05-21T12:59:57.061Z,22.88
2023-05-21T13:01:29.405Z,22.91
2023-05-21T13:03:02.412Z,22.89
2023-05-21T13:04:36.506Z,22.83
2023-05-21T13:06:08.749Z,22.84
2023-05-21T13:07:40.417Z,22.87
2023-05-21T13:09:12.048Z,22.91
2023-05-21T13:10:43.877Z,22.89
2023-05-21T13:12:15.599Z,22.84
2023-05-21T13:16:15.255Z,22.69
2023-05-21T13:17:49.688Z,22.63
2023-05-21T13:19:52.729Z,22.63
2023-05-21T13:21:24.473Z,22.70
2023-05-21T13:22:56.730Z,22.72
2023-05-21T13:24:28.588Z,22.67
2023-05-21T13:26:00.292Z,22.61
2023-05-21T13:27:31.876Z,22.55
2023-05-21T13:29:03.884Z,22.51
2023-05-21T13:30:35.956Z,22.50
2023-05-21T13:32:07.886Z,22.52
2023-05-21T13:33:39.869Z,22.57
2023-05-21T13:35:12.722Z,22.63
2023-05-21T13:36:44.924Z,22.72
2023-05-21T13:38:16.854Z,22.92
2023-05-21T13:39:48.487Z,23.03
2023-05-21T13:41:20.344Z,23.09
2023-05-21T13:42:53.364Z,23.07
2023-05-21T13:44:25.101Z,23.04
2023-05-21T13:45:56.780Z,23.07
2023-05-21T13:47:28.625Z,22.97
2023-05-21T13:49:01.091Z,22.89
2023-05-21T13:50:32.828Z,22.81
2023-05-21T13:52:06.951Z,22.77
2023-05-21T13:53:38.703Z,22.71
2023-05-21T13:55:11.124Z,22.61
2023-05-21T13:56:42.822Z,22.56
2023-05-21T13:58:14.502Z,22.61
2023-05-21T13:59:46.086Z,22.74
2023-05-21T14:01:18.043Z,22.88
2023-05-21T14:02:50.481Z,22.99
2023-05-21T14:04:22.303Z,23.02
2023-05-21T14:05:54.432Z,23.10
2023-05-21T14:07:26.764Z,23.28
2023-05-21T14:09:01.563Z,23.42
2023-05-21T14:10:33.705Z,23.64
2023-05-21T14:12:06.611Z,23.71
2023-05-21T14:13:38.815Z,23.82
2023-05-21T14:15:10.796Z,23.89
2023-05-21T14:16:42.853Z,24.02
2023-05-21T14:18:14.527Z,24.14
2023-05-21T14:19:48.220Z,24.11
2023-05-21T14:21:20.005Z,24.02
2023-05-21T14:22:51.640Z,24.11
2023-05-21T14:24:23.458Z,24.15
2023-05-21T14:25:55.462Z,24.12
2023-05-21T14:27:27.131Z,24.05
2023-05-21T14:28:58.771Z,23.99
2023-05-21T14:30:30.624Z,24.00
2023-05-21T14:32:02.618Z,23.98
2023-05-21T14:33:34.876Z,23.84
2023-05-21T14:35:06.760Z,23.74
2023-05-21T14:36:38.480Z,23.75
2023-05-21T14:38:10.943Z,23.82
2023-05-21T14:39:42.716Z,23.87
2023-05-21T14:41:14.387Z,23.78
2023-05-21T14:42:46.379Z,23.70
2023-05-21T14:44:18.590Z,23.64
2023-05-21T14:45:50.444Z,23.49
2023-05-21T14:47:22.374Z,23.44
2023-05-21T14:48:55.887Z,23.35
2023-05-21T14:50:28.067Z,23.30
2023-05-21T14:51:59.818Z,23.29
2023-05-21T14:53:32.419Z,23.31
2023-05-21T14:55:04.576Z,23.34
2023-05-21T14:56:36.672Z,23.36
2023-05-21T14:58:08.341Z,23.35
2023-05-21T14:59:39.844Z,23.32
2023-05-21T15:01:11.529Z,23.31
2023-05-21T15:02:43.402Z,23.29
2023-05-21T15:04:15.065Z,23.32
2023-05-21T15:05:46.645Z,23.32
2023-05-21T15:07:18.239Z,23.34
2023-05-21T15:08:49.945Z,23.35
2023-05-21T15:10:21.886Z,23.37
2023-05-21T15:11:53.867Z,23.25
2023-05-21T15:13:25.683Z,23.11
2023-05-21T15:14:57.432Z,23.02
2023-05-21T15:16:29.165Z,22.92
2023-05-21T15:18:01.111Z,22.92
2023-05-21T15:19:33.270Z,22.96
2023-05-21T15:21:05.383Z,23.02
2023-05-21T15:22:37.065Z,23.05
2023-05-21T15:24:08.789Z,23.03
2023-05-21T15:25:40.598Z,22.99
2023-05-21T15:27:12.390Z,22.97
2023-05-21T15:28:44.327Z,22.77
2023-05-21T15:30:16.044Z,22.63
2023-05-21T15:31:48.640Z,22.51
2023-05-21T15:33:20.418Z,22.34
2023-05-21T15:34:52.385Z,22.29
2023-05-21T15:36:24.237Z,22.16
2023-05-21T15:37:56.143Z,21.98
2023-05-21T15:39:29.007Z,21.84
2023-05-21T15:41:00.528Z,21.72
2023-05-21T15:42:32.332Z,21.61
2023-05-21T15:44:04.204Z,21.51
2023-05-21T15:45:36.162Z,21.44
2023-05-21T15:47:08.142Z,21.44
2023-05-21T15:48:40.145Z,21.50
2023-05-21T15:50:12.401Z,21.55
2023-05-21T15:51:44.748Z,21.58
2023-05-21T15:53:16.659Z,21.47
2023-05-21T15:54:48.680Z,21.37
2023-05-21T15:56:23.590Z,21.35
2023-05-21T15:57:55.776Z,21.33
2023-05-21T15:59:30.742Z,21.31
2023-05-21T16:01:02.477Z,21.26
2023-05-21T16:02:34.383Z,21.26
2023-05-21T16:04:09.953Z,21.20
2023-05-21T16:05:41.687Z,21.07
2023-05-21T16:07:13.360Z,20.98
2023-05-21T16:08:45.157Z,20.90
2023-05-21T16:10:17.614Z,20.80
2023-05-21T16:11:49.696Z,20.69
2023-05-21T16:13:21.573Z,20.63
2023-05-21T16:14:53.364Z,20.58
2023-05-21T16:16:25.541Z,20.51
2023-05-21T16:17:57.186Z,20.51
2023-05-21T16:19:28.789Z,20.58
2023-05-21T16:21:00.659Z,20.60
2023-05-21T16:22:32.435Z,20.71
2023-05-21T16:24:04.258Z,20.78
2023-05-21T16:25:37.742Z,20.84
2023-05-21T16:27:09.686Z,20.84
2023-05-21T16:28:41.380Z,20.80
2023-05-21T16:30:14.220Z,20.77
2023-05-21T16:31:46.627Z,20.79
2023-05-21T16:33:19.402Z,20.80
2023-05-21T16:34:51.891Z,20.79
2023-05-21T16:36:24.058Z,20.75
2023-05-21T16:37:56.138Z,20.72
2023-05-21T16:39:28.380Z,20.67
2023-05-21T16:41:00.518Z,20.58
2023-05-21T16:42:32.134Z,20.57
2023-05-21T16:44:03.844Z,20.55
2023-05-21T16:45:39.163Z,20.56
2023-05-21T16:47:11.132Z,20.55
2023-05-21T16:48:42.846Z,20.51
2023-05-21T16:50:14.852Z,20.43
2023-05-21T16:51:46.533Z,20.33
2023-05-21T16:53:18.629Z,20.21
2023-05-21T16:54:50.353Z,20.12
2023-05-21T16:56:22.722Z,20.01
2023-05-21T16:57:54.441Z,19.89
2023-05-21T16:59:26.191Z,19.80
2023-05-21T17:00:58.168Z,19.74
2023-05-21T17:02:30.425Z,19.67
2023-05-21T17:04:02.851Z,19.62
2023-05-21T17:05:35.092Z,19.53
2023-05-21T17:07:07.213Z,19.43
2023-05-21T17:08:38.858Z,19.36
2023-05-21T17:10:11.299Z,19.32
2023-05-21T17:11:43.840Z,19.27
2023-05-21T17:13:22.301Z,19.29
2023-05-21T17:14:55.276Z,19.29
2023-05-21T17:16:27.063Z,19.25
2023-05-21T17:17:58.960Z,19.21
2023-05-21T17:19:31.208Z,19.16
2023-05-21T17:21:04.070Z,19.13
2023-05-21T17:22:36.474Z,19.10
2023-05-21T17:24:08.439Z,19.06
2023-05-21T17:25:40.629Z,19.08
2023-05-21T17:27:13.083Z,19.07
2023-05-21T17:28:44.859Z,19.07
2023-05-21T17:30:16.606Z,19.11
2023-05-21T17:31:48.342Z,19.19
2023-05-21T17:33:20.088Z,19.26
2023-05-21T17:34:55.413Z,19.30
2023-05-21T17:36:27.022Z,19.31
2023-05-21T17:37:58.678Z,19.31
2023-05-21T17:39:30.582Z,19.37
2023-05-21T17:41:03.327Z,19.42
2023-05-21T17:42:35.112Z,19.47
2023-05-21T17:44:06.702Z,19.49
2023-05-21T17:45:38.688Z,19.47
2023-05-21T17:47:10.651Z,19.50
2023-05-21T17:48:42.696Z,19.51
2023-05-21T17:50:14.633Z,19.50
2023-05-21T17:51:46.617Z,19.51
2023-05-21T17:53:18.490Z,19.53
2023-05-21T17:54:50.349Z,19.57
2023-05-21T17:56:22.406Z,19.59
2023-05-21T17:57:54.055Z,19.58
2023-05-21T17:59:26.149Z,19.54
2023-05-21T18:00:58.245Z,19.50
2023-05-21T18:02:30.070Z,19.52
2023-05-21T18:04:03.077Z,19.52
2023-05-21T18:05:34.853Z,19.49
2023-05-21T18:07:06.623Z,19.50
2023-05-21T18:08:38.347Z,19.52
2023-05-21T18:10:10.510Z,19.54
2023-05-21T18:11:42.661Z,19.53
2023-05-21T18:13:14.615Z,19.54
2023-05-21T18:14:46.141Z,19.55
2023-05-21T18:16:17.857Z,19.57
2023-05-21T18:17:49.794Z,19.56
2023-05-21T18:19:21.497Z,19.54
2023-05-21T18:20:53.120Z,19.54
2023-05-21T18:22:25.245Z,19.57
2023-05-21T18:23:57.130Z,19.58
2023-05-21T18:25:28.904Z,19.57
2023-05-21T18:27:00.903Z,19.53
2023-05-21T18:28:33.645Z,19.51
2023-05-21T18:30:06.689Z,19.53
2023-05-21T18:31:38.706Z,19.54
2023-05-21T18:33:11.362Z,19.54
2023-05-21T18:34:47.786Z,19.53
2023-05-21T18:36:20.025Z,19.46
2023-05-21T18:37:52.386Z,19.41
2023-05-21T18:39:24.939Z,19.33
2023-05-21T18:40:56.851Z,19.30
2023-05-21T18:42:28.493Z,19.28
2023-05-21T18:44:01.920Z,19.28
2023-05-21T18:45:34.138Z,19.29
2023-05-21T18:47:06.307Z,19.27
2023-05-21T18:48:38.441Z,19.26
2023-05-21T18:50:11.260Z,19.26
2023-05-21T18:51:43.187Z,19.23
2023-05-21T18:53:15.105Z,19.24
2023-05-21T18:54:47.192Z,19.23
2023-05-21T18:56:18.852Z,19.25
2023-05-21T18:57:51.322Z,19.25
2023-05-21T18:59:23.909Z,19.27
2023-05-21T19:00:55.598Z,19.25
2023-05-21T19:02:28.257Z,19.25
2023-05-21T19:04:00.213Z,19.25
2023-05-21T19:05:32.571Z,19.26
2023-05-21T19:07:04.213Z,19.27
2023-05-21T19:08:35.925Z,19.28
2023-05-21T19:10:08.011Z,19.27
2023-05-21T19:11:39.757Z,19.26
2023-05-21T19:13:11.475Z,19.26
2023-05-21T19:14:46.430Z,19.24
2023-05-21T19:16:18.184Z,19.25
2023-05-21T19:17:50.113Z,19.19
2023-05-21T19:19:22.104Z,19.18
2023-05-21T19:20:53.851Z,19.17
2023-05-21T19:22:26.227Z,19.18
2023-05-21T19:23:57.917Z,19.17
2023-05-21T19:25:32.068Z,19.14
2023-05-21T19:27:04.158Z,19.10
2023-05-21T19:28:37.086Z,19.10
2023-05-21T19:30:09.002Z,19.11
2023-05-21T19:31:40.833Z,19.13
2023-05-21T19:33:12.582Z,19.11
2023-05-21T19:34:44.512Z,19.09
2023-05-21T19:36:16.804Z,19.05
2023-05-21T19:37:48.926Z,19.02
2023-05-21T19:39:21.289Z,19.02
2023-05-21T19:40:53.025Z,19.03
2023-05-21T19:42:25.000Z,19.03
2023-05-21T19:43:57.074Z,19.02
2023-05-21T19:45:29.122Z,19.03
2023-05-21T19:47:01.582Z,19.06
2023-05-21T19:48:34.191Z,19.07
2023-05-21T19:50:07.123Z,19.09
2023-05-21T19:51:39.141Z,19.11
2023-05-21T19:53:10.724Z,19.15
2023-05-21T19:54:42.318Z,19.22
2023-05-21T19:56:14.184Z,19.23
2023-05-21T19:57:46.111Z,19.25
2023-05-21T19:59:18.392Z,19.25
2023-05-21T20:00:51.044Z,19.22
2023-05-21T20:02:23.657Z,19.26
2023-05-21T20:03:55.367Z,19.29
2023-05-21T20:05:26.981Z,19.32
2023-05-21T20:06:59.861Z,19.31
2023-05-21T20:08:31.953Z,19.30
2023-05-21T20:10:03.969Z,19.29
2023-05-21T20:11:36.398Z,19.27
2023-05-21T20:13:09.301Z,19.25
2023-05-21T20:14:42.026Z,19.26
2023-05-21T20:16:14.939Z,19.28
2023-05-21T20:17:46.885Z,19.28
2023-05-21T20:19:22.986Z,19.28
2023-05-21T20:20:55.332Z,19.26
2023-05-21T20:22:27.821Z,19.20
2023-05-21T20:23:59.606Z,19.18
2023-05-21T20:25:31.282Z,19.16
2023-05-21T20:27:02.946Z,19.11
2023-05-21T20:28:35.236Z,19.03
2023-05-21T20:30:07.722Z,18.93
2023-05-21T20:31:39.357Z,18.92
2023-05-21T20:33:11.327Z,18.86
2023-05-21T20:34:58.385Z,18.79
2023-05-21T20:36:35.291Z,18.73
2023-05-21T20:38:08.752Z,18.71
2023-05-21T20:39:40.641Z,18.70
2023-05-21T20:41:12.500Z,18.76
2023-05-21T20:42:45.559Z,18.77
2023-05-21T20:44:17.649Z,18.80
2023-05-21T20:45:50.036Z,18.79
2023-05-21T20:47:23.656Z,18.86
2023-05-21T20:48:55.245Z,18.91
2023-05-21T20:50:28.803Z,18.97
2023-05-21T20:52:00.982Z,19.01
2023-05-21T20:53:33.823Z,19.03
2023-05-21T20:55:06.252Z,19.06
2023-05-21T20:56:42.548Z,19.03
2023-05-21T20:58:15.320Z,19.02
2023-05-21T20:59:46.909Z,19.01
2023-05-21T21:01:19.867Z,19.00
2023-05-21T21:02:51.537Z,18.98
2023-05-21T21:04:25.014Z,18.99
2023-05-21T21:05:58.560Z,18.95
2023-05-21T21:07:34.653Z,18.91
2023-05-21T21:09:07.163Z,18.88
2023-05-21T21:10:41.349Z,18.83
2023-05-21T21:12:26.185Z,18.82
2023-05-21T21:13:58.653Z,18.77
2023-05-21T21:15:30.259Z,18.74
2023-05-21T21:17:02.149Z,18.73
2023-05-21T21:18:33.807Z,18.74
2023-05-21T21:20:07.709Z,18.74
2023-05-21T21:21:39.694Z,18.71
2023-05-21T21:23:11.691Z,18.67
2023-05-21T21:24:44.369Z,18.60
2023-05-21T21:26:17.367Z,18.46